»·PEaware :: N209K L04-KMYF

N209K :: L04-KMYF

FLIGHT INFORMATION

Flight Status: Arrived
Operator: Privately registered:
United States
More flights under this callsign
Pilot: Paul K. (16555)
Aircraft: CESSNA T210 TURBO CENTURION
(T210)
More flights by this aircraft type
Origin: L04 Holtville
United States
Destination: KMYF Montgomery
United States
More flights between these airports :: More routes between these airports
Route: +IPL V66 MZB
File this flight plan on PilotEdge
Remarks: Depart VFR, Activate in air
Altitude:
(Current/Filed)
10,500ft
Speed:
(Current/Filed)
180kts
Departed: 23-Sep-19 09:36 AM
Arrived: 23-Sep-19 10:24 AM
Distance/Time
Traveled:
94nm/0:48
Distance/Time
To Go:
Arrived

Flight Plot

Page will automatically refresh every two minutes.


Map Options




Map Legend


Flown Route
Filed Route
Departure Airport
Arrival Airport
Navaid (VOR, NDB)
Fix

Horizontal Profiles

Position Reports

Time Latitude Longitude Heading Altitude Ground
Speed
23-Sep-19 09:15 32.840808 -115.274238 51 63ft 0kts
23-Sep-19 09:16 32.840808 -115.274238 51 63ft 0kts
23-Sep-19 09:17 32.840808 -115.274238 51 63ft 0kts
23-Sep-19 09:18 32.840808 -115.274238 51 63ft 0kts
23-Sep-19 09:19 32.840808 -115.274238 51 63ft 0kts
23-Sep-19 09:20 32.840808 -115.274238 51 63ft 0kts
23-Sep-19 09:21 32.840808 -115.274238 51 63ft 0kts
23-Sep-19 09:22 32.840808 -115.274238 51 63ft 0kts
23-Sep-19 09:23 32.840808 -115.274238 51 63ft 0kts
23-Sep-19 09:24 32.840808 -115.274238 51 63ft 0kts
23-Sep-19 09:25 32.840808 -115.274238 51 63ft 0kts
23-Sep-19 09:26 32.840808 -115.274238 51 63ft 0kts
23-Sep-19 09:27 32.840808 -115.274238 51 63ft 0kts
23-Sep-19 09:28 32.840808 -115.274238 51 63ft 0kts
23-Sep-19 09:29 32.842381 -115.275619 316 63ft 12kts
23-Sep-19 09:30 32.845183 -115.278198 54 63ft 7kts
23-Sep-19 09:31 32.845199 -115.278089 94 63ft 0kts
23-Sep-19 09:32 32.845199 -115.278089 94 63ft 0kts
23-Sep-19 09:33 32.845199 -115.278089 94 63ft 0kts
23-Sep-19 09:34 32.845199 -115.278083 94 63ft 0kts
23-Sep-19 09:35 32.845187 -115.265475 90 135ft 86kts
23-Sep-19 09:36 32.840295 -115.235395 134 874ft 99kts
23-Sep-19 09:37 32.825171 -115.254567 253 1669ft 110kts
23-Sep-19 09:38 32.815295 -115.286047 243 2419ft 111kts
23-Sep-19 09:39 32.804979 -115.320755 245 3263ft 110kts
23-Sep-19 09:40 32.794787 -115.355639 245 4083ft 110kts
23-Sep-19 09:41 32.784807 -115.390778 248 4863ft 112kts
23-Sep-19 09:42 32.776805 -115.420457 246 5465ft 115kts
23-Sep-19 09:43 32.768934 -115.445063 245 5996ft 113kts
23-Sep-19 09:44 32.758978 -115.483242 250 6713ft 117kts
23-Sep-19 09:45 32.749567 -115.521418 248 7453ft 116kts
23-Sep-19 09:46 32.751148 -115.559577 263 8338ft 107kts
23-Sep-19 09:47 32.751647 -115.594682 263 9147ft 106kts
23-Sep-19 09:48 32.752382 -115.631070 264 9867ft 111kts
23-Sep-19 09:49 32.753163 -115.673737 266 10028ft 146kts
23-Sep-19 09:50 32.754547 -115.725706 267 10021ft 159kts
23-Sep-19 09:51 32.756108 -115.779669 267 10022ft 160kts
23-Sep-19 09:52 32.757626 -115.833823 267 10008ft 161kts
23-Sep-19 09:53 32.759101 -115.887584 267 10008ft 161kts
23-Sep-19 09:54 32.760523 -115.940899 267 10015ft 161kts
23-Sep-19 09:55 32.761996 -115.994690 267 10038ft 160kts
23-Sep-19 09:56 32.763398 -116.047782 267 10059ft 159kts
23-Sep-19 09:57 32.764753 -116.100744 267 10084ft 159kts
23-Sep-19 09:58 32.766095 -116.153956 267 10107ft 159kts
23-Sep-19 09:59 32.767424 -116.206942 267 10111ft 160kts
23-Sep-19 10:00 32.768767 -116.260878 268 10109ft 160kts
23-Sep-19 10:01 32.770078 -116.314778 267 10107ft 159kts
23-Sep-19 10:02 32.771323 -116.368080 267 10109ft 159kts
23-Sep-19 10:03 32.772591 -116.422552 267 10111ft 160kts
23-Sep-19 10:04 32.773789 -116.476725 267 10109ft 160kts
23-Sep-19 10:05 32.771005 -116.530590 261 10045ft 163kts
23-Sep-19 10:06 32.770389 -116.585519 268 9998ft 162kts
23-Sep-19 10:07 32.771648 -116.639977 268 10006ft 160kts
23-Sep-19 10:08 32.772598 -116.693700 268 10010ft 159kts
23-Sep-19 10:09 32.749892 -116.736845 196 9124ft 156kts
23-Sep-19 10:10 32.706677 -116.745469 190 8093ft 151kts
23-Sep-19 10:11 32.664838 -116.752935 190 7068ft 145kts
23-Sep-19 10:12 32.633045 -116.775355 260 6042ft 144kts
23-Sep-19 10:13 32.655469 -116.814943 314 5064ft 159kts
23-Sep-19 10:14 32.684574 -116.848818 310 4994ft 142kts
23-Sep-19 10:15 32.713632 -116.884725 301 4427ft 161kts
23-Sep-19 10:16 32.733612 -116.930515 291 3576ft 138kts
23-Sep-19 10:17 32.748607 -116.968872 292 3195ft 125kts
23-Sep-19 10:18 32.761878 -117.002427 292 2489ft 122kts
23-Sep-19 10:19 32.776739 -117.039874 293 2230ft 116kts
23-Sep-19 10:20 32.790212 -117.073370 292 1503ft 106kts
23-Sep-19 10:21 32.801622 -117.102677 294 1071ft 90kts
23-Sep-19 10:22 32.811654 -117.128145 296 569ft 80kts
23-Sep-19 10:23 32.815828 -117.140829 239 429ft 0kts
23-Sep-19 10:24 32.815331 -117.142011 246 429ft 10kts
23-Sep-19 10:25 32.813816 -117.140761 161 429ft 5kts
23-Sep-19 10:26 32.813111 -117.140599 172 429ft 0kts
23-Sep-19 10:27 32.813111 -117.140599 172 429ft 0kts
23-Sep-19 10:28 32.813111 -117.140599 172 429ft 0kts
23-Sep-19 10:29 32.813111 -117.140599 172 429ft 0kts
23-Sep-19 10:30 32.813111 -117.140599 172 429ft 0kts
23-Sep-19 10:31 32.813111 -117.140599 172 429ft 0kts
23-Sep-19 10:32 32.813111 -117.140599 172 429ft 0kts
23-Sep-19 10:33 32.813111 -117.140599 172 429ft 0kts
23-Sep-19 10:34 32.813111 -117.140599 172 429ft 0kts
23-Sep-19 10:35 32.813111 -117.140599 172 429ft 0kts
23-Sep-19 10:36 32.813111 -117.140599 172 429ft 0kts
23-Sep-19 10:37 32.813111 -117.140599 172 429ft 0kts
23-Sep-19 10:38 32.813111 -117.140599 172 429ft 0kts

Navigation Log

Ident Type
Flight plan parsing failed, navigation log unavailable